Time;durP1;ratioP1;P1;durP2;ratioP2;P2;SDS_P1;SDS_P2;PMS_P1;PMS_P2;Temp;Humidity;BMP_temperature;BMP_pressure;BME280_temperature;BME280_humidity;BME280_pressure;Samples;Min_cycle;Max_cycle;Signal;HPM_P1;HPM_P2
2022/12/03 00:00:58;;;;;;;3.10;2.67;;;4.30;98.00;;;;;;4993111;28;20614;-65
2022/12/03 00:03:27;;;;;;;4.00;2.53;;;4.30;98.00;;;;;;4993085;28;20466;-66
2022/12/03 00:05:54;;;;;;;5.70;2.63;;;4.30;98.00;;;;;;4993339;28;20473;-66
2022/12/03 00:08:21;;;;;;;5.60;2.50;;;4.30;98.00;;;;;;4993192;28;20939;-65
2022/12/03 00:10:48;;;;;;;4.47;2.40;;;4.30;98.00;;;;;;4993462;28;20461;-65
2022/12/03 00:13:16;;;;;;;9.10;3.10;;;4.30;98.00;;;;;;4992953;28;20485;-66
2022/12/03 00:15:43;;;;;;;3.13;3.00;;;4.20;98.00;;;;;;4993133;28;20471;-65
2022/12/03 00:18:10;;;;;;;5.57;3.17;;;4.30;98.00;;;;;;4991878;28;20455;-65
2022/12/03 00:20:39;;;;;;;4.40;2.33;;;4.30;98.00;;;;;;4993053;28;20462;-65
2022/12/03 00:23:06;;;;;;;9.90;2.80;;;4.30;98.00;;;;;;4992873;28;20460;-66
2022/12/03 00:25:34;;;;;;;5.67;3.17;;;4.30;98.00;;;;;;4992204;28;20965;-65
2022/12/03 00:28:01;;;;;;;3.73;3.10;;;4.40;98.00;;;;;;4992869;28;21005;-65
2022/12/03 00:30:28;;;;;;;7.93;3.50;;;4.40;98.00;;;;;;4992750;28;20467;-65
2022/12/03 00:32:55;;;;;;;3.03;2.57;;;4.50;98.00;;;;;;4992747;28;20485;-65
2022/12/03 00:35:22;;;;;;;3.10;2.10;;;4.50;98.00;;;;;;4992499;28;20464;-66
2022/12/03 00:37:56;;;;;;;5.00;2.83;;;4.50;98.00;;;;;;4992342;28;20965;-65
2022/12/03 00:40:23;;;;;;;3.00;1.83;;;4.40;98.00;;;;;;4992656;28;20996;-66
2022/12/03 00:42:50;;;;;;;5.03;3.27;;;4.40;98.00;;;;;;4992506;28;20454;-66
2022/12/03 00:45:17;;;;;;;3.53;3.00;;;4.50;98.00;;;;;;4992506;28;21001;-65
2022/12/03 00:47:44;;;;;;;4.20;2.37;;;4.60;98.00;;;;;;4992504;28;20471;-65
2022/12/03 00:50:12;;;;;;;6.30;3.10;;;4.50;98.00;;;;;;4992318;28;20848;-65
2022/12/03 00:52:39;;;;;;;8.63;3.00;;;4.50;98.00;;;;;;4992009;28;20709;-65
2022/12/03 00:55:08;;;;;;;7.43;3.63;;;4.60;98.00;;;;;;4991999;28;20485;-65
2022/12/03 00:57:35;;;;;;;4.57;2.70;;;4.70;98.00;;;;;;4992443;28;20521;-65
2022/12/03 01:00:02;;;;;;;8.07;2.87;;;4.80;98.00;;;;;;4992654;28;20468;-65
2022/12/03 01:02:31;;;;;;;5.03;2.83;;;4.80;98.00;;;;;;4992311;28;20468;-65
2022/12/03 01:04:58;;;;;;;9.07;3.20;;;4.70;98.00;;;;;;4992567;28;20518;-66
2022/12/03 01:07:25;;;;;;;4.30;2.20;;;4.60;98.00;;;;;;4992410;28;20819;-65
2022/12/03 01:09:53;;;;;;;4.90;2.97;;;4.60;98.00;;;;;;4992666;28;20964;-65
2022/12/03 01:12:21;;;;;;;5.30;3.33;;;4.60;98.00;;;;;;4992395;28;20916;-65
2022/12/03 01:14:48;;;;;;;7.33;2.70;;;4.60;98.00;;;;;;4992418;28;20513;-65
2022/12/03 01:17:15;;;;;;;4.80;1.93;;;4.60;98.00;;;;;;4992211;28;20464;-65
2022/12/03 01:19:46;;;;;;;3.90;2.27;;;4.70;98.00;;;;;;4992328;28;20464;-65
2022/12/03 01:22:14;;;;;;;7.40;3.40;;;4.70;98.00;;;;;;4992027;28;20455;-65
2022/12/03 01:24:41;;;;;;;6.20;3.07;;;4.80;98.00;;;;;;4991075;28;20575;-65
2022/12/03 01:27:09;;;;;;;5.17;2.80;;;4.90;98.00;;;;;;4992239;28;20466;-65
2022/12/03 01:29:37;;;;;;;4.90;2.93;;;4.80;98.00;;;;;;4992281;28;20461;-65
2022/12/03 01:32:18;;;;;;;6.50;2.97;;;4.80;98.00;;;;;;4992124;28;20495;-65
2022/12/03 01:34:46;;;;;;;2.13;1.93;;;4.80;98.00;;;;;;4992189;28;20847;-65
2022/12/03 01:37:13;;;;;;;3.70;2.30;;;4.80;98.00;;;;;;4995829;28;20467;-65
2022/12/03 01:39:41;;;;;;;5.60;2.97;;;4.70;98.00;;;;;;4995524;28;20463;-65
2022/12/03 01:42:09;;;;;;;5.73;3.27;;;4.80;98.00;;;;;;4995650;28;20546;-65
2022/12/03 01:44:39;;;;;;;5.10;3.00;;;4.80;98.00;;;;;;4995639;28;20474;-65
2022/12/03 01:47:12;;;;;;;4.13;2.20;;;4.80;98.00;;;;;;4995576;28;20882;-65
2022/12/03 01:49:42;;;;;;;4.90;2.73;;;4.70;98.00;;;;;;4995308;28;20469;-65
2022/12/03 01:52:13;;;;;;;4.20;2.63;;;4.80;98.00;;;;;;4994959;28;20486;-65
2022/12/03 01:54:42;;;;;;;4.20;3.33;;;4.70;98.00;;;;;;4994990;28;20956;-65
2022/12/03 01:57:18;;;;;;;3.83;2.37;;;4.70;98.00;;;;;;4995030;28;20459;-65
2022/12/03 01:59:50;;;;;;;7.83;4.03;;;4.70;98.00;;;;;;4995663;28;20462;-65
2022/12/03 02:02:22;;;;;;;5.53;2.50;;;4.70;98.00;;;;;;4995399;28;20456;-66
2022/12/03 02:04:51;;;;;;;3.50;2.30;;;4.80;98.00;;;;;;4995628;28;20473;-65
2022/12/03 02:07:21;;;;;;;4.50;2.87;;;4.90;98.00;;;;;;4995105;28;20466;-65
2022/12/03 02:09:48;;;;;;;6.07;2.87;;;5.00;98.00;;;;;;4995260;28;20561;-65
2022/12/03 02:12:19;;;;;;;2.40;1.90;;;4.90;98.00;;;;;;4995175;28;20533;-65
2022/12/03 02:14:48;;;;;;;4.40;2.90;;;4.90;98.00;;;;;;4995204;28;20904;-66
2022/12/03 02:17:15;;;;;;;12.90;3.50;;;4.80;98.00;;;;;;4994958;28;20462;-65
2022/12/03 02:19:42;;;;;;;3.40;1.87;;;4.70;98.00;;;;;;4995177;28;20484;-65
2022/12/03 02:22:19;;;;;;;8.83;3.13;;;4.70;98.00;;;;;;4994798;28;20878;-65
2022/12/03 02:24:50;;;;;;;5.53;3.23;;;4.60;98.00;;;;;;4995244;28;20458;-65
2022/12/03 02:27:20;;;;;;;3.90;2.60;;;4.70;98.00;;;;;;4994960;28;20844;-66
2022/12/03 02:29:47;;;;;;;3.40;2.50;;;4.60;98.00;;;;;;4995182;28;20460;-65
2022/12/03 02:32:14;;;;;;;2.97;2.27;;;4.70;98.00;;;;;;4994680;28;20494;-65
2022/12/03 02:34:43;;;;;;;13.90;3.40;;;4.70;98.00;;;;;;4994918;28;20925;-65
2022/12/03 02:37:13;;;;;;;5.33;2.70;;;4.60;98.00;;;;;;4994715;28;21150;-65
2022/12/03 02:39:44;;;;;;;3.00;2.83;;;4.50;98.00;;;;;;4994636;28;20491;-66
2022/12/03 02:45:00;;;;;;;6.53;2.80;;;4.60;98.00;;;;;;4994636;28;20478;-65
2022/12/03 02:47:29;;;;;;;2.73;1.90;;;4.50;98.00;;;;;;4993731;28;20457;-65
2022/12/03 02:49:58;;;;;;;3.40;2.40;;;4.50;98.00;;;;;;4994670;28;20836;-65
2022/12/03 02:52:26;;;;;;;3.00;2.17;;;4.60;98.00;;;;;;4994292;28;21006;-65
2022/12/03 02:54:54;;;;;;;4.80;3.20;;;4.60;98.00;;;;;;4994574;28;20499;-65
2022/12/03 02:57:21;;;;;;;6.03;2.37;;;4.60;98.00;;;;;;4994346;28;20924;-65
2022/12/03 02:59:48;;;;;;;4.97;2.40;;;4.60;98.00;;;;;;4994526;28;20464;-65
2022/12/03 03:02:17;;;;;;;3.33;2.30;;;4.70;98.00;;;;;;4994204;28;20947;-66
2022/12/03 03:04:45;;;;;;;4.20;2.87;;;4.70;98.00;;;;;;4994008;28;20471;-65
2022/12/03 03:07:13;;;;;;;8.07;3.37;;;4.80;98.00;;;;;;4994130;28;20484;-65
2022/12/03 03:09:40;;;;;;;4.80;2.50;;;4.70;98.00;;;;;;4994033;28;20930;-65
2022/12/03 03:12:07;;;;;;;6.50;3.53;;;4.70;98.00;;;;;;4993667;28;20508;-65
2022/12/03 03:14:34;;;;;;;6.70;2.60;;;4.60;98.00;;;;;;4993934;28;20456;-65
2022/12/03 03:17:01;;;;;;;5.27;2.93;;;4.90;98.00;;;;;;4993823;28;20516;-65
2022/12/03 03:19:30;;;;;;;3.07;2.30;;;4.80;98.00;;;;;;4993913;28;20957;-65
2022/12/03 03:21:57;;;;;;;7.87;3.63;;;4.70;98.00;;;;;;4993777;28;20848;-65
2022/12/03 03:24:25;;;;;;;3.53;2.73;;;4.80;98.00;;;;;;4992777;28;20458;-65
2022/12/03 03:26:52;;;;;;;4.67;2.40;;;4.80;98.00;;;;;;4993603;28;21020;-65
2022/12/03 03:29:20;;;;;;;4.80;3.10;;;4.90;98.00;;;;;;4993785;28;20469;-65
2022/12/03 03:31:47;;;;;;;4.77;2.93;;;4.90;98.00;;;;;;4993898;28;20464;-65
2022/12/03 03:34:16;;;;;;;4.50;3.30;;;5.00;98.00;;;;;;4993523;28;20495;-65
2022/12/03 03:36:46;;;;;;;4.97;3.63;;;4.90;98.00;;;;;;4993613;28;20456;-65
2022/12/03 03:39:13;;;;;;;5.47;3.10;;;4.80;98.00;;;;;;4993553;28;20832;-65
2022/12/03 03:41:42;;;;;;;4.57;2.60;;;4.60;98.00;;;;;;4993517;28;20457;-65
2022/12/03 03:44:10;;;;;;;3.77;2.30;;;4.60;98.00;;;;;;4993703;28;20464;-66
2022/12/03 03:46:37;;;;;;;7.17;3.70;;;4.50;98.00;;;;;;4993765;28;20860;-65
2022/12/03 03:49:05;;;;;;;3.80;2.23;;;4.50;98.00;;;;;;4993513;28;20836;-65
2022/12/03 03:51:34;;;;;;;3.10;1.93;;;4.40;98.00;;;;;;4993529;28;20934;-65
2022/12/03 03:54:04;;;;;;;7.53;3.40;;;4.70;98.00;;;;;;4993186;28;20870;-65
2022/12/03 03:56:33;;;;;;;2.83;2.23;;;4.80;98.00;;;;;;4993506;28;20485;-65
2022/12/03 03:59:00;;;;;;;5.63;3.13;;;4.80;98.00;;;;;;4993093;28;20467;-65
2022/12/03 04:01:28;;;;;;;2.87;2.20;;;4.80;98.00;;;;;;4992965;28;20985;-65
2022/12/03 04:03:56;;;;;;;7.60;3.77;;;4.90;98.00;;;;;;4992770;28;20477;-65
2022/12/03 04:06:23;;;;;;;5.43;3.20;;;5.00;98.00;;;;;;4992992;28;20467;-65
2022/12/03 04:08:50;;;;;;;2.53;2.00;;;5.00;98.00;;;;;;4992699;28;20464;-65
2022/12/03 04:14:03;;;;;;;12.33;2.90;;;4.80;98.00;;;;;;4992882;28;20823;-65
2022/12/03 04:16:30;;;;;;;2.47;2.20;;;4.70;98.00;;;;;;4992920;28;20469;-65
2022/12/03 04:18:57;;;;;;;3.77;2.20;;;4.60;98.00;;;;;;4993084;28;20839;-65
2022/12/03 04:24:10;;;;;;;5.07;4.13;;;4.60;98.00;;;;;;4992944;28;20463;-65
2022/12/03 04:29:24;;;;;;;7.50;3.07;;;4.50;98.00;;;;;;4992976;28;20447;-65
2022/12/03 04:37:20;;;;;;;4.10;2.87;;;4.40;98.00;;;;;;4992772;28;20445;-65
2022/12/03 04:39:47;;;;;;;5.10;2.80;;;4.40;98.00;;;;;;4992780;28;20796;-65
2022/12/03 04:42:16;;;;;;;5.33;2.90;;;4.50;98.00;;;;;;4992571;28;20460;-65
2022/12/03 04:44:43;;;;;;;6.43;3.10;;;4.50;98.00;;;;;;4992721;28;20468;-65
2022/12/03 04:47:12;;;;;;;3.20;2.80;;;4.60;98.00;;;;;;4992500;28;20520;-65
2022/12/03 04:49:41;;;;;;;4.77;2.10;;;4.60;98.00;;;;;;4992809;28;20879;-65
2022/12/03 04:52:09;;;;;;;4.73;2.53;;;4.60;98.00;;;;;;4992317;28;20516;-65
2022/12/03 04:54:39;;;;;;;5.33;3.40;;;4.70;98.00;;;;;;4992336;28;20493;-65
2022/12/03 04:57:06;;;;;;;3.43;2.33;;;4.70;98.00;;;;;;4992240;28;20466;-65
2022/12/03 04:59:35;;;;;;;4.90;2.70;;;4.70;98.00;;;;;;4992780;28;20479;-65
2022/12/03 05:02:03;;;;;;;3.83;2.87;;;4.70;98.00;;;;;;4992311;28;20489;-65
2022/12/03 05:04:30;;;;;;;5.90;2.60;;;4.60;98.00;;;;;;4992308;28;20467;-65
2022/12/03 05:06:58;;;;;;;4.07;2.97;;;4.50;98.00;;;;;;4992328;28;20462;-65
2022/12/03 05:09:25;;;;;;;3.47;2.60;;;4.60;98.00;;;;;;4992390;28;20462;-65
2022/12/03 05:11:53;;;;;;;2.63;2.03;;;4.70;98.00;;;;;;4995860;28;20987;-65
2022/12/03 05:14:20;;;;;;;4.00;2.50;;;4.80;98.00;;;;;;4996100;28;20898;-65
2022/12/03 05:16:49;;;;;;;11.73;3.30;;;4.70;98.00;;;;;;4996280;28;20471;-66
2022/12/03 05:19:16;;;;;;;3.97;2.47;;;4.50;98.00;;;;;;4996184;28;20496;-65
2022/12/03 05:21:42;;;;;;;5.17;2.73;;;4.50;98.00;;;;;;4996354;28;20486;-66
2022/12/03 05:24:09;;;;;;;4.60;2.30;;;4.50;98.00;;;;;;4996021;28;20462;-65
2022/12/03 05:26:36;;;;;;;8.00;3.53;;;4.70;98.00;;;;;;4995188;28;20815;-66
2022/12/03 05:29:04;;;;;;;2.73;2.13;;;4.70;98.00;;;;;;4996130;28;20468;-65
2022/12/03 05:31:31;;;;;;;5.70;2.97;;;4.70;98.00;;;;;;4996006;28;20510;-65
2022/12/03 05:34:00;;;;;;;3.40;2.17;;;4.70;98.00;;;;;;4996087;28;20997;-65
2022/12/03 05:36:27;;;;;;;4.53;2.73;;;4.80;98.00;;;;;;4996007;28;20525;-65
2022/12/03 05:38:54;;;;;;;6.80;2.53;;;4.80;98.00;;;;;;4995959;28;20473;-65
2022/12/03 05:44:05;;;;;;;5.00;2.60;;;4.90;98.00;;;;;;4995623;28;20511;-65
2022/12/03 05:46:33;;;;;;;6.40;2.70;;;4.70;98.00;;;;;;4995756;28;20467;-66
2022/12/03 05:49:01;;;;;;;5.10;3.23;;;4.60;98.00;;;;;;4995515;28;20547;-65
2022/12/03 05:51:28;;;;;;;7.03;3.47;;;4.60;98.00;;;;;;4995520;28;20463;-66
2022/12/03 05:53:55;;;;;;;3.73;2.37;;;4.60;98.00;;;;;;4995350;28;20495;-65
2022/12/03 05:56:23;;;;;;;2.40;2.07;;;4.60;98.00;;;;;;4995415;28;20961;-65
2022/12/03 05:58:50;;;;;;;4.67;3.07;;;4.70;98.00;;;;;;4995430;28;20475;-65
2022/12/03 06:01:17;;;;;;;7.70;2.93;;;4.90;98.00;;;;;;4995284;28;20481;-65
2022/12/03 06:03:44;;;;;;;9.23;3.30;;;4.70;98.00;;;;;;4995299;28;20673;-66
2022/12/03 06:06:13;;;;;;;8.77;3.17;;;4.60;98.00;;;;;;4995340;28;20473;-65
2022/12/03 06:08:40;;;;;;;6.87;4.30;;;4.60;98.00;;;;;;4995303;28;20465;-65
2022/12/03 06:11:07;;;;;;;10.83;5.17;;;4.60;98.00;;;;;;4994282;28;20463;-65
2022/12/03 06:13:36;;;;;;;11.27;3.80;;;4.60;98.00;;;;;;4994519;28;21039;-66
2022/12/03 06:16:03;;;;;;;7.53;3.70;;;4.60;98.00;;;;;;4994997;28;20461;-66
2022/12/03 06:18:30;;;;;;;8.63;3.83;;;4.50;98.00;;;;;;4995045;28;20459;-65
2022/12/03 06:20:57;;;;;;;7.13;3.97;;;4.60;98.00;;;;;;4995055;28;20808;-65
2022/12/03 06:23:26;;;;;;;7.27;3.37;;;4.60;98.00;;;;;;4993928;28;21088;-65
2022/12/03 06:25:53;;;;;;;10.57;3.73;;;4.50;98.00;;;;;;4995268;28;20458;-65
2022/12/03 06:28:20;;;;;;;5.47;2.83;;;4.60;98.00;;;;;;4995042;28;20856;-66
2022/12/03 06:30:48;;;;;;;5.50;3.80;;;4.80;98.00;;;;;;4995347;28;20463;-65
2022/12/03 06:33:15;;;;;;;6.87;2.90;;;4.90;98.00;;;;;;4993627;28;20486;-65
2022/12/03 06:35:42;;;;;;;4.10;2.47;;;4.90;98.00;;;;;;4995098;28;20988;-65
2022/12/03 06:38:09;;;;;;;10.00;3.97;;;4.70;98.00;;;;;;4994754;28;20808;-65
2022/12/03 06:40:38;;;;;;;7.10;3.13;;;4.80;98.00;;;;;;4994765;28;20809;-65
2022/12/03 06:43:05;;;;;;;5.20;2.70;;;4.70;98.00;;;;;;4994517;28;20487;-65
2022/12/03 06:45:32;;;;;;;4.57;3.10;;;4.70;98.00;;;;;;4993466;28;20472;-65
2022/12/03 06:48:00;;;;;;;4.67;2.47;;;4.70;98.00;;;;;;4993241;28;20451;-65
2022/12/03 06:50:27;;;;;;;4.67;2.53;;;4.70;98.00;;;;;;4994223;28;20454;-66
2022/12/03 06:52:54;;;;;;;5.33;2.93;;;4.70;98.00;;;;;;4994233;28;20454;-66
2022/12/03 06:55:21;;;;;;;10.87;3.83;;;4.70;98.00;;;;;;4994196;28;20461;-65
2022/12/03 06:57:50;;;;;;;6.97;3.03;;;4.70;98.00;;;;;;4977031;28;20466;-66
2022/12/03 07:00:18;;;;;;;13.60;4.10;;;4.60;98.00;;;;;;4994239;28;20467;-66
2022/12/03 07:02:45;;;;;;;6.47;3.00;;;4.60;98.00;;;;;;4977038;28;20548;-66
2022/12/03 07:05:12;;;;;;;5.23;3.50;;;4.60;98.00;;;;;;4994039;28;20811;-66
2022/12/03 07:07:39;;;;;;;7.60;3.00;;;4.60;98.00;;;;;;4994154;28;20534;-65
2022/12/03 07:10:08;;;;;;;5.10;2.90;;;4.50;98.00;;;;;;4993821;28;20459;-66
2022/12/03 07:12:35;;;;;;;4.53;2.77;;;4.60;98.00;;;;;;4993305;28;20473;-65
2022/12/03 07:15:03;;;;;;;6.20;3.13;;;4.50;98.00;;;;;;4993351;28;20544;-66
2022/12/03 07:17:31;;;;;;;7.50;3.27;;;4.50;98.00;;;;;;4993467;28;20837;-65
2022/12/03 07:19:58;;;;;;;6.40;3.10;;;4.60;98.00;;;;;;4994417;28;20465;-65
2022/12/03 07:22:25;;;;;;;4.40;2.50;;;4.60;98.00;;;;;;4993802;28;20455;-65
2022/12/03 07:24:52;;;;;;;8.10;3.10;;;4.40;98.00;;;;;;4976931;28;20453;-66
2022/12/03 07:27:19;;;;;;;3.63;2.23;;;4.40;98.00;;;;;;4993813;28;20969;-65
2022/12/03 07:29:47;;;;;;;4.17;2.97;;;4.50;98.00;;;;;;4994072;28;20466;-65
2022/12/03 07:32:16;;;;;;;7.30;2.53;;;4.50;98.00;;;;;;4993607;28;20810;-65
2022/12/03 07:34:43;;;;;;;4.90;3.20;;;4.40;98.00;;;;;;4993688;28;20498;-66
2022/12/03 07:37:10;;;;;;;8.63;3.50;;;4.50;98.00;;;;;;4992821;28;20457;-66
2022/12/03 07:39:37;;;;;;;16.80;3.73;;;4.50;98.00;;;;;;4993709;28;20463;-65
2022/12/03 07:42:04;;;;;;;6.60;4.20;;;4.50;98.00;;;;;;4993415;28;20844;-66
2022/12/03 07:44:31;;;;;;;7.30;3.20;;;4.60;98.00;;;;;;4993429;28;20464;-65
2022/12/03 07:46:58;;;;;;;4.40;2.77;;;4.60;98.00;;;;;;4993600;28;20459;-65
2022/12/03 07:49:27;;;;;;;5.33;2.90;;;4.60;98.00;;;;;;4993184;28;20462;-65
2022/12/03 07:51:55;;;;;;;8.30;3.03;;;4.60;98.00;;;;;;4993299;28;20467;-62
2022/12/03 07:54:23;;;;;;;3.90;2.70;;;4.60;98.00;;;;;;4993056;28;20523;-62
2022/12/03 07:56:51;;;;;;;3.90;2.40;;;4.60;98.00;;;;;;4993486;28;20478;-62
2022/12/03 07:59:19;;;;;;;5.17;2.53;;;4.50;98.00;;;;;;4975780;28;20529;-61
2022/12/03 08:01:46;;;;;;;6.07;2.90;;;4.50;98.00;;;;;;4992705;28;20463;-62
2022/12/03 08:04:13;;;;;;;8.93;3.23;;;4.50;98.00;;;;;;4992475;28;20482;-61
2022/12/03 08:06:42;;;;;;;2.43;2.17;;;4.50;98.00;;;;;;4993111;28;20459;-62
2022/12/03 08:09:09;;;;;;;5.67;2.70;;;4.50;98.00;;;;;;4992956;28;20462;-62
2022/12/03 08:11:36;;;;;;;6.97;4.00;;;4.60;98.00;;;;;;4992748;28;20816;-61
2022/12/03 08:14:11;;;;;;;4.20;2.43;;;4.70;98.00;;;;;;4993046;28;20488;-61
2022/12/03 08:16:40;;;;;;;7.10;2.30;;;4.60;98.00;;;;;;4992984;28;20957;-62
2022/12/03 08:19:12;;;;;;;5.20;2.47;;;4.70;98.00;;;;;;4993172;28;20459;-62
2022/12/03 08:21:41;;;;;;;7.50;3.70;;;4.60;98.00;;;;;;4993115;28;20463;-62
2022/12/03 08:24:14;;;;;;;5.83;3.20;;;4.60;98.00;;;;;;4992698;28;20533;-63
2022/12/03 08:26:43;;;;;;;2.30;1.80;;;4.60;98.00;;;;;;4993065;28;20545;-62
2022/12/03 08:29:13;;;;;;;6.73;2.70;;;4.60;98.00;;;;;;4992508;28;20498;-63
2022/12/03 08:31:40;;;;;;;7.50;3.40;;;4.50;98.00;;;;;;4992784;28;20457;-63
2022/12/03 08:34:17;;;;;;;8.70;3.63;;;4.50;98.00;;;;;;4992369;28;20491;-62
2022/12/03 08:36:47;;;;;;;3.60;2.20;;;4.50;98.00;;;;;;4992719;28;20493;-62
2022/12/03 08:39:30;;;;;;;7.93;3.63;;;4.60;98.00;;;;;;4992277;28;20451;-62
2022/12/03 08:44:54;;;;;;;5.63;2.53;;;4.60;98.00;;;;;;4992189;28;20580;-62
2022/12/03 08:47:23;;;;;;;5.50;3.10;;;4.60;98.00;;;;;;4992546;28;20719;-62
2022/12/03 08:49:56;;;;;;;4.80;3.13;;;4.60;98.00;;;;;;4992557;28;20520;-63
2022/12/03 08:52:34;;;;;;;5.97;2.57;;;4.50;98.00;;;;;;4992491;28;20833;-62
2022/12/03 08:55:23;;;;;;;7.40;3.37;;;4.50;98.00;;;;;;4992568;28;20488;-62
2022/12/03 08:57:51;;;;;;;4.13;2.90;;;4.50;98.00;;;;;;4992449;28;20961;-62
2022/12/03 09:00:21;;;;;;;3.00;2.30;;;4.50;98.00;;;;;;4992729;28;20459;-62
2022/12/03 09:02:52;;;;;;;4.40;2.30;;;4.50;98.00;;;;;;4975347;28;20945;-61
2022/12/03 09:05:22;;;;;;;6.17;3.37;;;4.40;98.00;;;;;;4992291;28;20482;-61
2022/12/03 09:07:49;;;;;;;4.37;2.37;;;4.40;98.00;;;;;;4992660;28;20458;-62
2022/12/03 09:10:16;;;;;;;6.60;2.47;;;4.40;98.00;;;;;;4992482;28;20860;-61
2022/12/03 09:12:44;;;;;;;4.73;3.10;;;4.50;98.00;;;;;;4988965;28;20470;-63
2022/12/03 09:15:12;;;;;;;5.10;2.67;;;4.50;98.00;;;;;;4989463;28;20502;-62
2022/12/03 09:17:40;;;;;;;7.17;3.67;;;4.50;98.00;;;;;;4989726;28;20454;-61
2022/12/03 09:20:08;;;;;;;2.20;1.77;;;4.40;98.00;;;;;;4989447;28;20984;-62
2022/12/03 09:22:35;;;;;;;5.33;2.80;;;4.30;98.00;;;;;;4989756;28;20466;-61
2022/12/03 09:25:02;;;;;;;11.10;3.20;;;4.20;98.00;;;;;;4989406;28;20826;-62
2022/12/03 09:27:29;;;;;;;4.53;2.80;;;4.20;98.00;;;;;;4988843;28;20469;-62
2022/12/03 09:29:56;;;;;;;5.50;2.40;;;4.20;98.00;;;;;;4990762;28;20464;-62
2022/12/03 09:32:25;;;;;;;10.20;4.10;;;4.30;98.00;;;;;;4974992;28;20469;-64
2022/12/03 09:34:53;;;;;;;3.87;3.00;;;4.30;98.00;;;;;;4975065;28;20492;-61
2022/12/03 09:39:56;;;;;;;4.27;2.70;;;4.20;98.00;;;;;;5026861;22;20495;-62
2022/12/03 09:42:23;;;;;;;9.77;3.20;;;4.10;98.00;;;;;;5027455;28;21003;-61
2022/12/03 09:44:50;;;;;;;8.70;3.00;;;4.10;98.00;;;;;;5011749;28;20464;-61
2022/12/03 09:47:18;;;;;;;8.03;3.43;;;4.20;98.00;;;;;;4993832;28;20461;-62
2022/12/03 09:49:46;;;;;;;5.43;2.93;;;4.20;98.00;;;;;;5011386;28;20458;-61
2022/12/03 09:52:28;;;;;;;7.60;3.13;;;4.30;98.00;;;;;;5011005;28;20516;-62
2022/12/03 09:54:56;;;;;;;7.27;2.93;;;4.30;98.00;;;;;;5011760;28;20495;-61
2022/12/03 09:57:23;;;;;;;5.00;2.90;;;4.20;98.00;;;;;;5014230;28;20460;-62
2022/12/03 09:59:50;;;;;;;8.87;3.47;;;4.30;98.00;;;;;;5015207;28;20503;-61
2022/12/03 10:02:24;;;;;;;5.67;3.00;;;4.20;98.00;;;;;;5014735;28;20465;-62
2022/12/03 10:04:53;;;;;;;5.03;2.63;;;4.20;98.00;;;;;;5014304;28;20990;-62
2022/12/03 10:07:20;;;;;;;4.33;2.40;;;4.20;98.00;;;;;;5014565;28;20460;-62
2022/12/03 10:09:47;;;;;;;2.23;1.80;;;4.30;98.00;;;;;;5014819;28;21143;-62
2022/12/03 10:12:21;;;;;;;4.17;2.60;;;4.40;98.00;;;;;;5014716;28;20458;-62
2022/12/03 10:14:48;;;;;;;3.63;2.47;;;4.50;98.00;;;;;;5014594;28;20877;-62
2022/12/03 10:17:15;;;;;;;7.53;2.63;;;4.40;98.00;;;;;;5014638;28;20469;-62
2022/12/03 10:19:43;;;;;;;4.07;2.57;;;4.50;98.00;;;;;;5014732;28;20812;-62
2022/12/03 10:22:11;;;;;;;6.03;3.03;;;4.60;98.00;;;;;;5014450;28;20456;-62
2022/12/03 10:24:39;;;;;;;4.87;2.73;;;4.50;98.00;;;;;;5014288;28;20462;-62
2022/12/03 10:27:22;;;;;;;4.73;2.73;;;4.40;98.00;;;;;;5014756;28;20470;-62
2022/12/03 10:29:56;;;;;;;6.73;3.17;;;4.50;98.00;;;;;;4997218;28;20528;-62
2022/12/03 10:32:26;;;;;;;3.67;2.47;;;4.50;98.00;;;;;;5014255;28;20914;-62
2022/12/03 10:35:08;;;;;;;3.77;2.67;;;4.40;98.00;;;;;;5014226;28;20573;-62
2022/12/03 10:37:37;;;;;;;6.63;3.37;;;4.50;98.00;;;;;;5014309;28;20466;-62
2022/12/03 10:40:07;;;;;;;2.97;2.23;;;4.60;98.00;;;;;;5014462;28;20461;-62
2022/12/03 10:42:36;;;;;;;7.00;2.80;;;4.60;98.00;;;;;;5014104;28;20462;-62
2022/12/03 10:45:15;;;;;;;7.03;2.97;;;4.60;98.00;;;;;;5014521;28;20524;-62
2022/12/03 10:47:44;;;;;;;12.60;3.00;;;4.60;98.00;;;;;;5014246;28;20462;-62
2022/12/03 10:50:17;;;;;;;5.10;2.93;;;4.60;98.00;;;;;;5014360;28;20472;-62
2022/12/03 10:52:46;;;;;;;2.63;1.53;;;4.50;98.00;;;;;;5013952;28;20470;-62
2022/12/03 10:55:19;;;;;;;3.93;2.20;;;4.60;98.00;;;;;;5014076;28;20491;-62
2022/12/03 10:57:47;;;;;;;4.30;2.33;;;4.50;98.00;;;;;;5013862;28;20524;-62
2022/12/03 11:00:18;;;;;;;4.53;2.57;;;4.50;98.00;;;;;;5014081;28;20466;-62
2022/12/03 11:02:47;;;;;;;4.53;2.37;;;4.40;98.00;;;;;;5013944;28;20467;-62
2022/12/03 11:05:16;;;;;;;3.80;2.50;;;4.60;98.00;;;;;;5013736;28;20907;-62
2022/12/03 11:07:45;;;;;;;3.73;2.80;;;4.50;98.00;;;;;;5012920;28;20500;-62
2022/12/03 11:10:17;;;;;;;2.80;2.33;;;4.60;98.00;;;;;;5013639;28;20493;-62
2022/12/03 11:13:23;;;;;;;3.80;2.63;;;4.50;98.00;;;;;;5013350;28;20465;-62
2022/12/03 11:15:50;;;;;;;6.77;2.40;;;4.40;98.00;;;;;;5013293;28;20516;-62
2022/12/03 11:18:50;;;;;;;3.53;2.80;;;4.40;98.00;;;;;;5013408;28;20464;-62
2022/12/03 11:21:33;;;;;;;2.63;2.03;;;4.40;98.00;;;;;;4990832;28;20444;-62
2022/12/03 11:24:29;;;;;;;4.63;3.13;;;4.30;98.00;;;;;;5013394;28;20461;-62
2022/12/03 11:27:26;;;;;;;2.90;1.80;;;4.40;98.00;;;;;;5013328;28;21005;-62
2022/12/03 11:29:58;;;;;;;3.30;2.13;;;4.50;98.00;;;;;;4996115;28;20469;-62
2022/12/03 11:32:59;;;;;;;5.20;2.17;;;4.60;98.00;;;;;;5013073;28;20541;-62
2022/12/03 11:35:28;;;;;;;3.70;2.30;;;4.60;98.00;;;;;;4952187;29;20489;-62
2022/12/03 11:37:55;;;;;;;8.20;3.77;;;4.60;98.00;;;;;;5001117;28;20473;-62
2022/12/03 11:40:28;;;;;;;3.20;2.37;;;4.60;98.00;;;;;;5012798;28;21380;-62
2022/12/03 11:42:55;;;;;;;4.43;2.50;;;4.60;98.00;;;;;;5012469;28;20494;-62
2022/12/03 11:45:34;;;;;;;4.57;2.47;;;4.60;98.00;;;;;;5012710;28;20471;-62
2022/12/03 11:48:12;;;;;;;5.07;3.00;;;4.70;98.00;;;;;;5009414;28;20472;-62
2022/12/03 11:50:42;;;;;;;5.60;2.90;;;4.80;98.00;;;;;;5008510;28;20460;-64
2022/12/03 11:53:16;;;;;;;3.97;2.07;;;4.70;98.00;;;;;;5010242;28;20463;-63
2022/12/03 11:55:51;;;;;;;6.73;2.90;;;4.60;98.00;;;;;;5010277;28;20524;-62
2022/12/03 11:58:24;;;;;;;6.30;2.47;;;4.60;98.00;;;;;;5018664;28;20470;-62
2022/12/03 12:00:52;;;;;;;4.50;2.50;;;4.70;98.00;;;;;;5009826;28;20493;-63
2022/12/03 12:03:28;;;;;;;6.50;3.10;;;4.70;98.00;;;;;;5009780;28;20510;-63
2022/12/03 12:06:03;;;;;;;5.50;2.83;;;4.80;98.00;;;;;;5009542;28;20464;-62
2022/12/03 12:09:02;;;;;;;4.03;2.23;;;4.70;98.00;;;;;;5009803;28;20556;-62
2022/12/03 12:11:32;;;;;;;3.00;1.90;;;4.70;98.00;;;;;;5009749;28;20894;-62
2022/12/03 12:14:00;;;;;;;7.87;2.97;;;4.60;98.00;;;;;;5009743;28;20988;-62
2022/12/03 12:16:46;;;;;;;6.40;2.63;;;4.60;98.00;;;;;;5009564;28;21158;-62
2022/12/03 12:19:43;;;;;;;5.03;2.60;;;4.60;98.00;;;;;;5009232;28;20524;-62
2022/12/03 12:22:31;;;;;;;3.37;1.90;;;4.60;98.00;;;;;;4962369;28;20601;-62
2022/12/03 12:24:59;;;;;;;5.80;2.90;;;4.50;98.00;;;;;;4998586;28;20505;-62
2022/12/03 12:27:34;;;;;;;5.33;2.60;;;4.50;98.00;;;;;;5009710;28;20952;-62
2022/12/03 12:30:03;;;;;;;9.80;3.10;;;4.60;98.00;;;;;;5363762;22;20904;-62
2022/12/03 12:32:32;;;;;;;3.83;3.20;;;4.60;98.00;;;;;;5009142;28;20461;-62
2022/12/03 12:35:03;;;;;;;4.27;3.03;;;4.60;98.00;;;;;;5008922;28;20484;-62
2022/12/03 12:37:34;;;;;;;3.30;2.20;;;4.60;98.00;;;;;;5008989;28;20545;-62
2022/12/03 12:40:06;;;;;;;3.30;2.50;;;4.60;98.00;;;;;;5009245;28;20867;-62
2022/12/03 12:42:36;;;;;;;4.27;2.53;;;4.50;98.00;;;;;;5008840;28;20896;-62
2022/12/03 12:45:14;;;;;;;9.20;2.60;;;4.40;98.00;;;;;;5008986;28;20481;-62
2022/12/03 12:47:49;;;;;;;5.53;2.63;;;4.40;98.00;;;;;;5009351;28;20543;-63
2022/12/03 12:50:18;;;;;;;3.60;2.33;;;4.40;98.00;;;;;;4999072;28;20525;-63
2022/12/03 12:52:52;;;;;;;3.57;2.67;;;4.50;98.00;;;;;;5009307;28;20467;-63
2022/12/03 12:55:20;;;;;;;4.53;2.40;;;4.50;98.00;;;;;;5008925;28;20480;-63
2022/12/03 12:57:49;;;;;;;6.07;2.43;;;4.40;98.00;;;;;;4991562;28;20470;-63
2022/12/03 13:00:19;;;;;;;3.80;2.40;;;4.30;98.00;;;;;;5009633;28;20457;-63
2022/12/03 13:02:51;;;;;;;6.33;2.87;;;4.30;98.00;;;;;;5009403;28;20472;-63
2022/12/03 13:05:19;;;;;;;3.77;2.37;;;4.30;98.00;;;;;;4993207;28;20903;-63
2022/12/03 13:07:46;;;;;;;4.07;2.77;;;4.30;98.00;;;;;;5009106;28;20461;-63
2022/12/03 13:10:37;;;;;;;3.07;2.50;;;4.20;98.00;;;;;;5008694;28;20474;-63
2022/12/03 13:13:23;;;;;;;4.07;2.60;;;4.20;98.00;;;;;;5008826;28;20544;-63
2022/12/03 13:15:59;;;;;;;3.30;2.13;;;4.30;98.00;;;;;;5008585;28;20568;-62
2022/12/03 13:18:31;;;;;;;3.27;2.00;;;4.20;98.00;;;;;;5008790;28;20471;-62
2022/12/03 13:20:58;;;;;;;2.37;2.10;;;4.20;98.00;;;;;;5008599;28;20461;-63
2022/12/03 13:23:28;;;;;;;4.27;1.80;;;4.20;98.00;;;;;;5008813;28;20456;-63
2022/12/03 13:25:57;;;;;;;4.17;2.30;;;4.20;98.00;;;;;;5008746;28;21054;-63
2022/12/03 13:28:28;;;;;;;3.67;2.77;;;4.10;98.00;;;;;;5008935;28;20467;-64
2022/12/03 13:30:55;;;;;;;6.83;2.50;;;4.10;98.00;;;;;;5008756;28;20527;-63
2022/12/03 13:33:26;;;;;;;4.80;2.60;;;4.20;98.00;;;;;;5012528;28;20496;-64
2022/12/03 13:35:57;;;;;;;5.03;2.40;;;4.20;98.00;;;;;;5012699;28;20491;-65